sensor_id;sensor_type;location;lat;lon;timestamp;pressure;altitude;pressure_sealevel;temperature;humidity
64340;BME280;63709;53.258;-8.814;2023-02-11T00:01:07;103521.31;;;13.05;100.00
64340;BME280;63709;53.258;-8.814;2023-02-11T00:03:34;103518.56;;;13.06;100.00
64340;BME280;63709;53.258;-8.814;2023-02-11T00:06:00;103525.06;;;13.01;100.00
64340;BME280;63709;53.258;-8.814;2023-02-11T00:08:26;103517.31;;;12.93;100.00
64340;BME280;63709;53.258;-8.814;2023-02-11T00:10:53;103520.09;;;12.92;100.00
64340;BME280;63709;53.258;-8.814;2023-02-11T00:13:19;103517.41;;;12.92;100.00
64340;BME280;63709;53.258;-8.814;2023-02-11T00:15:44;103508.16;;;12.99;100.00
64340;BME280;63709;53.258;-8.814;2023-02-11T00:18:10;103510.03;;;12.97;100.00
64340;BME280;63709;53.258;-8.814;2023-02-11T00:20:37;103509.03;;;12.99;100.00
64340;BME280;63709;53.258;-8.814;2023-02-11T00:23:02;103503.88;;;12.95;100.00
64340;BME280;63709;53.258;-8.814;2023-02-11T00:25:27;103504.78;;;12.94;100.00
64340;BME280;63709;53.258;-8.814;2023-02-11T00:27:53;103516.47;;;12.93;100.00
64340;BME280;63709;53.258;-8.814;2023-02-11T00:30:19;103513.78;;;12.93;100.00
64340;BME280;63709;53.258;-8.814;2023-02-11T00:32:45;103520.94;;;12.92;100.00
64340;BME280;63709;53.258;-8.814;2023-02-11T00:35:11;103526.41;;;12.91;100.00
64340;BME280;63709;53.258;-8.814;2023-02-11T00:37:36;103528.38;;;12.86;100.00
64340;BME280;63709;53.258;-8.814;2023-02-11T00:40:03;103518.59;;;12.84;100.00
64340;BME280;63709;53.258;-8.814;2023-02-11T00:42:29;103514.31;;;12.80;100.00
64340;BME280;63709;53.258;-8.814;2023-02-11T00:44:54;103518.78;;;12.80;100.00
64340;BME280;63709;53.258;-8.814;2023-02-11T00:47:19;103513.22;;;12.84;100.00
64340;BME280;63709;53.258;-8.814;2023-02-11T00:49:45;103510.63;;;12.83;100.00
64340;BME280;63709;53.258;-8.814;2023-02-11T00:52:10;103502.44;;;12.86;100.00
64340;BME280;63709;53.258;-8.814;2023-02-11T00:54:36;103498.88;;;12.86;100.00
64340;BME280;63709;53.258;-8.814;2023-02-11T00:57:01;103499.81;;;12.84;100.00
64340;BME280;63709;53.258;-8.814;2023-02-11T00:59:28;103504.25;;;12.86;100.00
64340;BME280;63709;53.258;-8.814;2023-02-11T01:01:53;103502.31;;;12.89;100.00
64340;BME280;63709;53.258;-8.814;2023-02-11T01:04:18;103497.81;;;12.90;100.00
64340;BME280;63709;53.258;-8.814;2023-02-11T01:06:45;103494.22;;;12.91;100.00
64340;BME280;63709;53.258;-8.814;2023-02-11T01:09:13;103492.44;;;12.90;100.00
64340;BME280;63709;53.258;-8.814;2023-02-11T01:11:38;103488.56;;;12.97;100.00
64340;BME280;63709;53.258;-8.814;2023-02-11T01:14:05;103495.84;;;12.95;100.00
64340;BME280;63709;53.258;-8.814;2023-02-11T01:16:30;103492.22;;;12.96;100.00
64340;BME280;63709;53.258;-8.814;2023-02-11T01:18:55;103490.34;;;12.98;100.00
64340;BME280;63709;53.258;-8.814;2023-02-11T01:21:24;103491.97;;;13.02;100.00
64340;BME280;63709;53.258;-8.814;2023-02-11T01:23:49;103490.41;;;12.96;100.00
64340;BME280;63709;53.258;-8.814;2023-02-11T01:26:15;103488.53;;;12.98;100.00
64340;BME280;63709;53.258;-8.814;2023-02-11T01:28:41;103481.56;;;12.94;100.00
64340;BME280;63709;53.258;-8.814;2023-02-11T01:31:08;103486.84;;;12.96;100.00
64340;BME280;63709;53.258;-8.814;2023-02-11T01:33:33;103484.41;;;12.90;100.00
64340;BME280;63709;53.258;-8.814;2023-02-11T01:35:59;103480.06;;;12.87;100.00
64340;BME280;63709;53.258;-8.814;2023-02-11T01:38:27;103481.84;;;12.87;100.00
64340;BME280;63709;53.258;-8.814;2023-02-11T01:40:53;103484.41;;;12.90;100.00
64340;BME280;63709;53.258;-8.814;2023-02-11T01:43:20;103484.41;;;12.90;100.00
64340;BME280;63709;53.258;-8.814;2023-02-11T01:48:12;103481.84;;;12.87;100.00
64340;BME280;63709;53.258;-8.814;2023-02-11T01:50:40;103486.41;;;12.84;100.00
64340;BME280;63709;53.258;-8.814;2023-02-11T01:53:07;103483.66;;;12.86;100.00
64340;BME280;63709;53.258;-8.814;2023-02-11T01:55:53;103485.00;;;12.76;100.00
64340;BME280;63709;53.258;-8.814;2023-02-11T01:58:43;103486.94;;;12.72;100.00
64340;BME280;63709;53.258;-8.814;2023-02-11T02:01:10;103488.56;;;12.76;100.00
64340;BME280;63709;53.258;-8.814;2023-02-11T02:03:38;103495.09;;;12.69;100.00
64340;BME280;63709;53.258;-8.814;2023-02-11T02:06:18;103487.25;;;12.65;100.00
64340;BME280;63709;53.258;-8.814;2023-02-11T02:08:54;103480.13;;;12.64;100.00
64340;BME280;63709;53.258;-8.814;2023-02-11T02:11:21;103483.84;;;12.61;100.00
64340;BME280;63709;53.258;-8.814;2023-02-11T02:13:47;103485.31;;;12.68;100.00
64340;BME280;63709;53.258;-8.814;2023-02-11T02:16:14;103483.44;;;12.70;100.00
64340;BME280;63709;53.258;-8.814;2023-02-11T02:37:12;103463.94;;;12.67;100.00
64340;BME280;63709;53.258;-8.814;2023-02-11T02:39:42;103462.13;;;12.67;100.00
64340;BME280;63709;53.258;-8.814;2023-02-11T02:42:09;103462.06;;;12.69;100.00
64340;BME280;63709;53.258;-8.814;2023-02-11T02:44:46;103456.97;;;12.63;100.00
64340;BME280;63709;53.258;-8.814;2023-02-11T02:47:12;103455.97;;;12.65;100.00
64340;BME280;63709;53.258;-8.814;2023-02-11T02:49:37;103443.34;;;12.67;100.00
64340;BME280;63709;53.258;-8.814;2023-02-11T02:55:04;103437.31;;;12.62;100.00
64340;BME280;63709;53.258;-8.814;2023-02-11T02:57:38;103439.69;;;12.70;100.00
64340;BME280;63709;53.258;-8.814;2023-02-11T03:05:22;103451.69;;;12.81;100.00
64340;BME280;63709;53.258;-8.814;2023-02-11T03:10:53;103457.19;;;12.78;100.00
64340;BME280;63709;53.258;-8.814;2023-02-11T03:13:21;103441.53;;;12.68;100.00
64340;BME280;63709;53.258;-8.814;2023-02-11T03:15:49;103448.16;;;12.59;100.00
64340;BME280;63709;53.258;-8.814;2023-02-11T03:18:18;103448.28;;;12.56;100.00
64340;BME280;63709;53.258;-8.814;2023-02-11T03:20:45;103448.25;;;12.57;100.00
64340;BME280;63709;53.258;-8.814;2023-02-11T03:25:43;103445.63;;;12.56;100.00
64340;BME280;63709;53.258;-8.814;2023-02-11T03:28:24;103440.97;;;12.61;100.00
64340;BME280;63709;53.258;-8.814;2023-02-11T03:30:58;103437.38;;;12.60;100.00
64340;BME280;63709;53.258;-8.814;2023-02-11T03:33:28;103442.63;;;12.64;100.00
64340;BME280;63709;53.258;-8.814;2023-02-11T03:35:57;103446.97;;;12.66;100.00
64340;BME280;63709;53.258;-8.814;2023-02-11T03:38:26;103446.03;;;12.67;100.00
64340;BME280;63709;53.258;-8.814;2023-02-11T03:40:56;103440.56;;;12.70;100.00
64340;BME280;63709;53.258;-8.814;2023-02-11T03:43:41;103439.50;;;12.74;100.00
64340;BME280;63709;53.258;-8.814;2023-02-11T03:46:09;103442.03;;;12.77;100.00
64340;BME280;63709;53.258;-8.814;2023-02-11T03:48:41;103445.59;;;12.78;100.00
64340;BME280;63709;53.258;-8.814;2023-02-11T03:51:08;103454.69;;;12.74;100.00
64340;BME280;63709;53.258;-8.814;2023-02-11T03:53:35;103450.53;;;12.67;100.00
64340;BME280;63709;53.258;-8.814;2023-02-11T03:56:09;103462.81;;;12.72;100.00
64340;BME280;63709;53.258;-8.814;2023-02-11T03:58:37;103457.69;;;12.66;100.00
64340;BME280;63709;53.258;-8.814;2023-02-11T04:01:03;103453.44;;;12.60;100.00
64340;BME280;63709;53.258;-8.814;2023-02-11T04:03:29;103446.03;;;12.67;100.00
64340;BME280;63709;53.258;-8.814;2023-02-11T04:05:58;103441.50;;;12.69;100.00
64340;BME280;63709;53.258;-8.814;2023-02-11T04:08:23;103445.25;;;12.65;100.00
64340;BME280;63709;53.258;-8.814;2023-02-11T04:10:50;103447.19;;;12.62;100.00
64340;BME280;63709;53.258;-8.814;2023-02-11T04:13:16;103444.09;;;12.71;100.00
64340;BME280;63709;53.258;-8.814;2023-02-11T04:15:42;103447.81;;;12.68;100.00
64340;BME280;63709;53.258;-8.814;2023-02-11T04:18:07;103452.34;;;12.66;100.00
64340;BME280;63709;53.258;-8.814;2023-02-11T04:20:33;103462.06;;;12.69;100.00
64340;BME280;63709;53.258;-8.814;2023-02-11T04:22:58;103452.25;;;12.68;100.00
64340;BME280;63709;53.258;-8.814;2023-02-11T04:25:23;103461.97;;;12.50;100.00
64340;BME280;63709;53.258;-8.814;2023-02-11T04:27:52;103444.50;;;12.40;100.00
64340;BME280;63709;53.258;-8.814;2023-02-11T04:30:18;103467.38;;;12.48;100.00
64340;BME280;63709;53.258;-8.814;2023-02-11T04:32:44;103459.75;;;12.38;100.00
64340;BME280;63709;53.258;-8.814;2023-02-11T04:35:10;103456.16;;;12.39;100.00
64340;BME280;63709;53.258;-8.814;2023-02-11T04:37:35;103455.25;;;12.60;100.00
64340;BME280;63709;53.258;-8.814;2023-02-11T04:40:00;103449.78;;;12.63;100.00
64340;BME280;63709;53.258;-8.814;2023-02-11T04:42:26;103453.41;;;12.62;100.00
64340;BME280;63709;53.258;-8.814;2023-02-11T04:44:52;103450.59;;;12.65;100.00
64340;BME280;63709;53.258;-8.814;2023-02-11T04:47:18;103440.97;;;12.61;100.00
64340;BME280;63709;53.258;-8.814;2023-02-11T04:49:45;103437.25;;;12.64;100.00
64340;BME280;63709;53.258;-8.814;2023-02-11T04:52:11;103440.63;;;12.69;100.00
64340;BME280;63709;53.258;-8.814;2023-02-11T04:54:39;103442.50;;;12.67;100.00
64340;BME280;63709;53.258;-8.814;2023-02-11T04:57:05;103437.09;;;12.68;100.00
64340;BME280;63709;53.258;-8.814;2023-02-11T04:59:30;103438.69;;;12.72;100.00
64340;BME280;63709;53.258;-8.814;2023-02-11T05:01:56;103426.38;;;12.68;100.00
64340;BME280;63709;53.258;-8.814;2023-02-11T05:04:21;103424.69;;;12.66;100.00
64340;BME280;63709;53.258;-8.814;2023-02-11T05:06:47;103418.38;;;12.67;100.00
64340;BME280;63709;53.258;-8.814;2023-02-11T05:09:12;103415.69;;;12.67;100.00
64340;BME280;63709;53.258;-8.814;2023-02-11T05:11:39;103407.59;;;12.68;100.00
64340;BME280;63709;53.258;-8.814;2023-02-11T05:14:05;103412.97;;;12.68;100.00
64340;BME280;63709;53.258;-8.814;2023-02-11T05:16:36;103412.97;;;12.68;100.00
64340;BME280;63709;53.258;-8.814;2023-02-11T05:19:03;103414.16;;;12.61;100.00
64340;BME280;63709;53.258;-8.814;2023-02-11T05:21:28;103416.09;;;12.57;100.00
64340;BME280;63709;53.258;-8.814;2023-02-11T05:23:55;103415.91;;;12.62;100.00
64340;BME280;63709;53.258;-8.814;2023-02-11T05:26:22;103420.19;;;12.66;100.00
64340;BME280;63709;53.258;-8.814;2023-02-11T05:28:47;103420.38;;;12.62;100.00
64340;BME280;63709;53.258;-8.814;2023-02-11T05:31:13;103424.56;;;12.69;100.00
64340;BME280;63709;53.258;-8.814;2023-02-11T05:33:39;103421.13;;;12.65;100.00
64340;BME280;63709;53.258;-8.814;2023-02-11T05:36:05;103432.00;;;12.60;100.00
64340;BME280;63709;53.258;-8.814;2023-02-11T05:38:31;103434.84;;;12.57;100.00
64340;BME280;63709;53.258;-8.814;2023-02-11T05:40:57;103439.63;;;12.49;100.00
64340;BME280;63709;53.258;-8.814;2023-02-11T05:43:22;103446.56;;;12.55;100.00
64340;BME280;63709;53.258;-8.814;2023-02-11T05:45:48;103444.53;;;12.60;100.00
64340;BME280;63709;53.258;-8.814;2023-02-11T05:48:13;103449.22;;;12.55;100.00
64340;BME280;63709;53.258;-8.814;2023-02-11T05:50:39;103464.03;;;12.42;100.00
64340;BME280;63709;53.258;-8.814;2023-02-11T05:53:04;103461.25;;;12.45;100.00
64340;BME280;63709;53.258;-8.814;2023-02-11T05:55:31;103463.81;;;12.48;100.00
64340;BME280;63709;53.258;-8.814;2023-02-11T05:57:56;103468.31;;;12.47;100.00
64340;BME280;63709;53.258;-8.814;2023-02-11T06:00:21;103464.44;;;12.54;100.00
64340;BME280;63709;53.258;-8.814;2023-02-11T06:02:48;103468.06;;;12.53;100.00
64340;BME280;63709;53.258;-8.814;2023-02-11T06:05:14;103466.13;;;12.57;100.00
64340;BME280;63709;53.258;-8.814;2023-02-11T06:07:39;103467.03;;;12.56;100.00
64340;BME280;63709;53.258;-8.814;2023-02-11T06:10:06;103462.31;;;12.63;100.00
64340;BME280;63709;53.258;-8.814;2023-02-11T06:12:32;103459.63;;;12.63;100.00
64340;BME280;63709;53.258;-8.814;2023-02-11T06:14:58;103464.91;;;12.64;100.00
64340;BME280;63709;53.258;-8.814;2023-02-11T06:17:24;103459.75;;;12.59;100.00
64340;BME280;63709;53.258;-8.814;2023-02-11T06:19:49;103454.19;;;12.64;100.00
64340;BME280;63709;53.258;-8.814;2023-02-11T06:22:15;103455.84;;;12.68;100.00
64340;BME280;63709;53.258;-8.814;2023-02-11T06:24:41;103451.59;;;12.63;100.00
64340;BME280;63709;53.258;-8.814;2023-02-11T06:27:07;103460.50;;;12.63;100.00
64340;BME280;63709;53.258;-8.814;2023-02-11T06:29:33;103454.19;;;12.64;100.00
64340;BME280;63709;53.258;-8.814;2023-02-11T06:31:58;103450.72;;;12.62;100.00
64340;BME280;63709;53.258;-8.814;2023-02-11T06:34:23;103450.72;;;12.62;100.00
64340;BME280;63709;53.258;-8.814;2023-02-11T06:36:49;103450.06;;;12.57;100.00
64340;BME280;63709;53.258;-8.814;2023-02-11T06:39:14;103456.13;;;12.60;100.00
64340;BME280;63709;53.258;-8.814;2023-02-11T06:41:40;103457.81;;;12.63;100.00
64340;BME280;63709;53.258;-8.814;2023-02-11T06:44:05;103461.25;;;12.67;100.00
64340;BME280;63709;53.258;-8.814;2023-02-11T06:46:30;103460.69;;;12.58;100.00
64340;BME280;63709;53.258;-8.814;2023-02-11T06:48:56;103452.84;;;12.54;100.00
64340;BME280;63709;53.258;-8.814;2023-02-11T06:51:21;103454.91;;;12.47;100.00
64340;BME280;63709;53.258;-8.814;2023-02-11T06:53:48;103452.00;;;12.53;100.00
64340;BME280;63709;53.258;-8.814;2023-02-11T06:56:18;103459.19;;;12.51;100.00
64340;BME280;63709;53.258;-8.814;2023-02-11T06:58:43;103460.06;;;12.52;100.00
64340;BME280;63709;53.258;-8.814;2023-02-11T07:01:10;103458.56;;;12.45;100.00
64340;BME280;63709;53.258;-8.814;2023-02-11T07:03:38;103454.50;;;12.34;100.00
64340;BME280;63709;53.258;-8.814;2023-02-11T07:06:05;103465.00;;;12.41;100.00
64340;BME280;63709;53.258;-8.814;2023-02-11T07:08:35;103454.16;;;12.44;100.00
64340;BME280;63709;53.258;-8.814;2023-02-11T07:11:07;103454.94;;;12.46;100.00
64340;BME280;63709;53.258;-8.814;2023-02-11T07:13:32;103457.78;;;12.43;100.00
64340;BME280;63709;53.258;-8.814;2023-02-11T07:16:02;103449.75;;;12.43;100.00
64340;BME280;63709;53.258;-8.814;2023-02-11T07:18:27;103460.47;;;12.43;100.00
64340;BME280;63709;53.258;-8.814;2023-02-11T07:20:53;103456.84;;;12.44;100.00
64340;BME280;63709;53.258;-8.814;2023-02-11T07:23:18;103462.44;;;12.38;100.00
64340;BME280;63709;53.258;-8.814;2023-02-11T07:25:44;103467.78;;;12.38;100.00
64340;BME280;63709;53.258;-8.814;2023-02-11T07:28:09;103467.41;;;12.25;100.00
64340;BME280;63709;53.258;-8.814;2023-02-11T07:30:34;103464.44;;;12.32;100.00
64340;BME280;63709;53.258;-8.814;2023-02-11T07:33:00;103467.34;;;12.26;100.00
64340;BME280;63709;53.258;-8.814;2023-02-11T07:35:25;103467.47;;;12.23;100.00
64340;BME280;63709;53.258;-8.814;2023-02-11T07:37:51;103473.22;;;12.36;100.00
64340;BME280;63709;53.258;-8.814;2023-02-11T07:40:16;103472.41;;;12.34;100.00
64340;BME280;63709;53.258;-8.814;2023-02-11T07:42:41;103469.84;;;12.31;100.00
64340;BME280;63709;53.258;-8.814;2023-02-11T07:45:08;103474.16;;;12.35;100.00
64340;BME280;63709;53.258;-8.814;2023-02-11T07:47:34;103467.63;;;12.42;100.00
64340;BME280;63709;53.258;-8.814;2023-02-11T07:49:59;103463.44;;;12.35;100.00
64340;BME280;63709;53.258;-8.814;2023-02-11T07:52:27;103466.69;;;12.43;100.00
64340;BME280;63709;53.258;-8.814;2023-02-11T07:54:53;103467.44;;;12.47;100.00
64340;BME280;63709;53.258;-8.814;2023-02-11T07:57:18;103450.19;;;12.54;100.00
64340;BME280;63709;53.258;-8.814;2023-02-11T07:59:45;103453.66;;;12.56;100.00
64340;BME280;63709;53.258;-8.814;2023-02-11T08:02:11;103460.91;;;12.54;100.00
64340;BME280;63709;53.258;-8.814;2023-02-11T08:04:37;103472.53;;;12.53;100.00
64340;BME280;63709;53.258;-8.814;2023-02-11T08:07:03;103471.22;;;12.63;100.00
64340;BME280;63709;53.258;-8.814;2023-02-11T08:09:29;103473.22;;;12.58;100.00
64340;BME280;63709;53.258;-8.814;2023-02-11T08:11:54;103469.28;;;12.67;100.00
64340;BME280;63709;53.258;-8.814;2023-02-11T08:14:20;103469.28;;;12.67;100.00
64340;BME280;63709;53.258;-8.814;2023-02-11T08:16:45;103471.97;;;12.67;100.00
64340;BME280;63709;53.258;-8.814;2023-02-11T08:19:11;103468.03;;;12.75;100.00
64340;BME280;63709;53.258;-8.814;2023-02-11T08:21:38;103470.66;;;12.77;100.00
64340;BME280;63709;53.258;-8.814;2023-02-11T08:24:04;103471.41;;;12.80;100.00
64340;BME280;63709;53.258;-8.814;2023-02-11T08:26:32;103479.16;;;12.87;100.00
64340;BME280;63709;53.258;-8.814;2023-02-11T08:28:59;103485.44;;;12.87;100.00
64340;BME280;63709;53.258;-8.814;2023-02-11T08:31:29;103488.16;;;12.86;100.00
64340;BME280;63709;53.258;-8.814;2023-02-11T08:33:55;103482.78;;;12.86;100.00
64340;BME280;63709;53.258;-8.814;2023-02-11T08:36:26;103479.66;;;12.76;100.00
64340;BME280;63709;53.258;-8.814;2023-02-11T08:38:57;103482.16;;;12.79;100.00
64340;BME280;63709;53.258;-8.814;2023-02-11T08:41:30;103487.63;;;12.77;100.00
64340;BME280;63709;53.258;-8.814;2023-02-11T08:43:55;103495.09;;;12.69;100.00
64340;BME280;63709;53.258;-8.814;2023-02-11T08:46:20;103491.88;;;12.61;100.00
64340;BME280;63709;53.258;-8.814;2023-02-11T08:48:47;103503.47;;;12.62;100.00
64340;BME280;63709;53.258;-8.814;2023-02-11T08:51:15;103509.06;;;12.55;100.00
64340;BME280;63709;53.258;-8.814;2023-02-11T08:53:41;103506.69;;;12.48;100.00
64340;BME280;63709;53.258;-8.814;2023-02-11T08:56:07;103506.03;;;12.41;100.00
64340;BME280;63709;53.258;-8.814;2023-02-11T08:58:34;103514.16;;;12.40;100.00
64340;BME280;63709;53.258;-8.814;2023-02-11T09:01:00;103508.72;;;12.41;100.00
64340;BME280;63709;53.258;-8.814;2023-02-11T09:03:25;103509.66;;;12.40;100.00
64340;BME280;63709;53.258;-8.814;2023-02-11T09:05:52;103523.00;;;12.42;100.00
64340;BME280;63709;53.258;-8.814;2023-02-11T09:08:19;103524.59;;;12.46;100.00
64340;BME280;63709;53.258;-8.814;2023-02-11T09:10:44;103523.75;;;12.45;100.00
64340;BME280;63709;53.258;-8.814;2023-02-11T09:13:10;103521.03;;;12.47;100.00
64340;BME280;63709;53.258;-8.814;2023-02-11T09:15:35;103523.88;;;12.42;100.00
64340;BME280;63709;53.258;-8.814;2023-02-11T09:18:01;103524.38;;;12.52;100.00
64340;BME280;63709;53.258;-8.814;2023-02-11T09:20:28;103526.00;;;12.56;100.00
64340;BME280;63709;53.258;-8.814;2023-02-11T09:22:54;103527.06;;;12.52;100.00
64340;BME280;63709;53.258;-8.814;2023-02-11T09:25:22;103522.53;;;12.54;100.00
64340;BME280;63709;53.258;-8.814;2023-02-11T09:27:47;103526.13;;;12.53;100.00
64340;BME280;63709;53.258;-8.814;2023-02-11T09:30:14;103520.00;;;12.49;100.00
64340;BME280;63709;53.258;-8.814;2023-02-11T09:32:40;103527.75;;;12.57;100.00
64340;BME280;63709;53.258;-8.814;2023-02-11T09:35:06;103521.50;;;12.56;100.00
64340;BME280;63709;53.258;-8.814;2023-02-11T09:37:31;103519.66;;;12.58;100.00
64340;BME280;63709;53.258;-8.814;2023-02-11T09:39:58;103513.31;;;12.61;100.00
64340;BME280;63709;53.258;-8.814;2023-02-11T09:44:56;103509.34;;;12.48;100.00
64340;BME280;63709;53.258;-8.814;2023-02-11T09:47:29;103516.41;;;12.50;100.00
64340;BME280;63709;53.258;-8.814;2023-02-11T09:50:06;103512.91;;;12.48;100.00
64340;BME280;63709;53.258;-8.814;2023-02-11T09:52:37;103517.28;;;12.51;100.00
64340;BME280;63709;53.258;-8.814;2023-02-11T09:55:14;103515.53;;;12.50;100.00
64340;BME280;63709;53.258;-8.814;2023-02-11T09:57:42;103526.25;;;12.50;100.00
64340;BME280;63709;53.258;-8.814;2023-02-11T10:00:17;103525.28;;;12.29;100.00
64340;BME280;63709;53.258;-8.814;2023-02-11T10:05:33;103527.28;;;12.46;100.00
64340;BME280;63709;53.258;-8.814;2023-02-11T10:08:12;103526.19;;;12.51;100.00
64340;BME280;63709;53.258;-8.814;2023-02-11T10:13:16;103527.81;;;12.55;100.00
64340;BME280;63709;53.258;-8.814;2023-02-11T10:23:32;103532.84;;;12.63;100.00
64340;BME280;63709;53.258;-8.814;2023-02-11T10:25:58;103524.78;;;12.65;100.00
64340;BME280;63709;53.258;-8.814;2023-02-11T10:28:34;103525.03;;;12.80;100.00
64340;BME280;63709;53.258;-8.814;2023-02-11T10:31:08;103522.34;;;12.80;100.00
64340;BME280;63709;53.258;-8.814;2023-02-11T10:36:19;103532.31;;;12.99;100.00
64340;BME280;63709;53.258;-8.814;2023-02-11T10:38:53;103533.16;;;12.99;100.00
64340;BME280;63709;53.258;-8.814;2023-02-11T10:41:38;103522.00;;;13.10;100.00
64340;BME280;63709;53.258;-8.814;2023-02-11T10:44:06;103527.69;;;13.02;100.00
64340;BME280;63709;53.258;-8.814;2023-02-11T10:46:32;103524.59;;;13.12;100.00
64340;BME280;63709;53.258;-8.814;2023-02-11T10:48:59;103529.50;;;13.22;100.00
64340;BME280;63709;53.258;-8.814;2023-02-11T10:51:26;103521.72;;;13.16;100.00
64340;BME280;63709;53.258;-8.814;2023-02-11T10:56:39;103531.47;;;13.19;100.00
64340;BME280;63709;53.258;-8.814;2023-02-11T11:01:50;103545.44;;;13.27;100.00
64340;BME280;63709;53.258;-8.814;2023-02-11T11:09:46;103536.28;;;13.32;100.00
64340;BME280;63709;53.258;-8.814;2023-02-11T11:14:58;103537.56;;;13.24;100.00
64340;BME280;63709;53.258;-8.814;2023-02-11T11:17:24;103540.03;;;13.28;100.00
64340;BME280;63709;53.258;-8.814;2023-02-11T11:20:39;103543.88;;;13.21;100.00
64340;BME280;63709;53.258;-8.814;2023-02-11T11:22:40;103546.00;;;13.13;100.00
64340;BME280;63709;53.258;-8.814;2023-02-11T11:25:19;103549.06;;;13.26;100.00
64340;BME280;63709;53.258;-8.814;2023-02-11T11:27:47;103551.53;;;13.30;100.00
64340;BME280;63709;53.258;-8.814;2023-02-11T11:30:14;103548.63;;;13.37;100.00
64340;BME280;63709;53.258;-8.814;2023-02-11T11:32:42;103547.53;;;13.41;100.00
64340;BME280;63709;53.258;-8.814;2023-02-11T11:35:19;103546.69;;;13.40;100.00
64340;BME280;63709;53.258;-8.814;2023-02-11T11:37:45;103548.16;;;13.47;100.00
64340;BME280;63709;53.258;-8.814;2023-02-11T11:42:42;103556.63;;;13.59;100.00
64340;BME280;63709;53.258;-8.814;2023-02-11T11:47:57;103551.78;;;13.67;100.00
64340;BME280;63709;53.258;-8.814;2023-02-11T11:55:37;103550.59;;;13.53;100.00
64340;BME280;63709;53.258;-8.814;2023-02-11T11:58:04;103552.38;;;13.53;100.00
64340;BME280;63709;53.258;-8.814;2023-02-11T12:03:29;103549.63;;;13.54;100.00
64340;BME280;63709;53.258;-8.814;2023-02-11T12:08:43;103547.75;;;13.56;100.00
64340;BME280;63709;53.258;-8.814;2023-02-11T12:16:30;103542.50;;;13.74;100.00
64340;BME280;63709;53.258;-8.814;2023-02-11T12:22:17;103524.59;;;13.74;100.00
64340;BME280;63709;53.258;-8.814;2023-02-11T12:27:10;103517.38;;;13.95;100.00
64340;BME280;63709;53.258;-8.814;2023-02-11T12:32:26;103517.94;;;13.83;100.00
64340;BME280;63709;53.258;-8.814;2023-02-11T12:37:58;103512.59;;;14.02;100.00
64340;BME280;63709;53.258;-8.814;2023-02-11T12:43:23;103512.00;;;13.95;100.00
64340;BME280;63709;53.258;-8.814;2023-02-11T12:51:21;103502.78;;;14.01;100.00
64340;BME280;63709;53.258;-8.814;2023-02-11T12:56:47;103504.47;;;14.03;100.00
64340;BME280;63709;53.258;-8.814;2023-02-11T13:01:56;103510.94;;;14.18;100.00
64340;BME280;63709;53.258;-8.814;2023-02-11T13:04:28;103505.81;;;14.12;100.00
64340;BME280;63709;53.258;-8.814;2023-02-11T13:07:01;103502.50;;;14.07;100.00
64340;BME280;63709;53.258;-8.814;2023-02-11T13:10:15;103507.78;;;14.09;100.00
64340;BME280;63709;53.258;-8.814;2023-02-11T13:12:19;103502.41;;;14.09;100.00
64340;BME280;63709;53.258;-8.814;2023-02-11T13:15:05;103503.16;;;14.12;100.00
64340;BME280;63709;53.258;-8.814;2023-02-11T13:17:49;103506.00;;;14.09;100.00
64340;BME280;63709;53.258;-8.814;2023-02-11T13:22:45;103492.03;;;14.20;100.00
64340;BME280;63709;53.258;-8.814;2023-02-11T13:25:18;103494.09;;;14.15;100.00
64340;BME280;63709;53.258;-8.814;2023-02-11T13:27:57;103483.19;;;14.18;100.00
64340;BME280;63709;53.258;-8.814;2023-02-11T13:40:44;103492.34;;;13.95;100.00
64340;BME280;63709;53.258;-8.814;2023-02-11T13:43:19;103495.66;;;14.00;100.00
64340;BME280;63709;53.258;-8.814;2023-02-11T13:45:46;103494.16;;;13.94;100.00
64340;BME280;63709;53.258;-8.814;2023-02-11T13:48:21;103494.06;;;13.96;100.00
64340;BME280;63709;53.258;-8.814;2023-02-11T13:50:52;103487.75;;;13.97;100.00
64340;BME280;63709;53.258;-8.814;2023-02-11T13:53:18;103489.66;;;13.95;100.00
64340;BME280;63709;53.258;-8.814;2023-02-11T13:55:45;103489.34;;;14.01;100.00
64340;BME280;63709;53.258;-8.814;2023-02-11T14:06:11;103474.47;;;13.94;100.00
64340;BME280;63709;53.258;-8.814;2023-02-11T14:11:42;103472.81;;;13.91;100.00
64340;BME280;63709;53.258;-8.814;2023-02-11T14:14:13;103473.59;;;13.93;100.00
64340;BME280;63709;53.258;-8.814;2023-02-11T14:19:46;103474.19;;;14.00;100.00
64340;BME280;63709;53.258;-8.814;2023-02-11T14:32:45;103461.03;;;13.94;100.00
64340;BME280;63709;53.258;-8.814;2023-02-11T14:42:30;103462.56;;;13.99;100.00
64340;BME280;63709;53.258;-8.814;2023-02-11T14:44:56;103466.41;;;13.94;100.00
64340;BME280;63709;53.258;-8.814;2023-02-11T14:47:27;103455.47;;;13.98;100.00
64340;BME280;63709;53.258;-8.814;2023-02-11T14:49:57;103458.88;;;14.02;100.00
64340;BME280;63709;53.258;-8.814;2023-02-11T14:54:48;103459.25;;;13.94;100.00
64340;BME280;63709;53.258;-8.814;2023-02-11T14:57:16;103456.75;;;13.90;100.00
64340;BME280;63709;53.258;-8.814;2023-02-11T14:59:53;103450.38;;;13.92;100.00
64340;BME280;63709;53.258;-8.814;2023-02-11T15:02:20;103450.28;;;13.94;100.00
64340;BME280;63709;53.258;-8.814;2023-02-11T15:04:45;103451.59;;;13.85;100.00
64340;BME280;63709;53.258;-8.814;2023-02-11T15:07:11;103453.19;;;13.89;100.00
64340;BME280;63709;53.258;-8.814;2023-02-11T15:12:02;103456.84;;;13.88;100.00
64340;BME280;63709;53.258;-8.814;2023-02-11T15:14:46;103460.13;;;13.95;100.00
64340;BME280;63709;53.258;-8.814;2023-02-11T15:17:13;103454.66;;;13.96;100.00